sensor_id;sensor_type;location;lat;lon;timestamp;pressure;altitude;pressure_sealevel;temperature;humidity
84904;BME280;75168;52.096;5.214;2024-01-27T00:01:31;103322.06;;;20.88;40.87
84904;BME280;75168;52.096;5.214;2024-01-27T00:03:57;103321.19;;;20.88;40.70
84904;BME280;75168;52.096;5.214;2024-01-27T00:06:22;103326.50;;;20.88;40.93
84904;BME280;75168;52.096;5.214;2024-01-27T00:08:48;103331.81;;;20.88;40.46
84904;BME280;75168;52.096;5.214;2024-01-27T00:11:13;103326.50;;;20.88;40.75
84904;BME280;75168;52.096;5.214;2024-01-27T00:13:38;103329.16;;;20.88;41.00
84904;BME280;75168;52.096;5.214;2024-01-27T00:16:04;103337.13;;;20.88;40.86
84904;BME280;75168;52.096;5.214;2024-01-27T00:18:30;103337.97;;;20.87;40.99
84904;BME280;75168;52.096;5.214;2024-01-27T00:20:55;103343.28;;;20.87;41.05
84904;BME280;75168;52.096;5.214;2024-01-27T00:23:20;103341.53;;;20.87;41.01
84904;BME280;75168;52.096;5.214;2024-01-27T00:25:46;103346.81;;;20.86;40.64
84904;BME280;75168;52.096;5.214;2024-01-27T00:28:11;103353.88;;;20.87;41.03
84904;BME280;75168;52.096;5.214;2024-01-27T00:30:37;103351.22;;;20.87;40.66
84904;BME280;75168;52.096;5.214;2024-01-27T00:33:02;103354.78;;;20.86;40.75
84904;BME280;75168;52.096;5.214;2024-01-27T00:35:27;103357.44;;;20.86;40.86
84904;BME280;75168;52.096;5.214;2024-01-27T00:37:53;103359.19;;;20.87;40.68
84904;BME280;75168;52.096;5.214;2024-01-27T00:40:18;103352.13;;;20.86;41.00
84904;BME280;75168;52.096;5.214;2024-01-27T00:42:43;103355.66;;;20.86;40.61
84904;BME280;75168;52.096;5.214;2024-01-27T00:45:09;103353.00;;;20.85;40.89
84904;BME280;75168;52.096;5.214;2024-01-27T00:47:34;103355.63;;;20.85;40.80
84904;BME280;75168;52.096;5.214;2024-01-27T00:50:00;103353.00;;;20.85;40.79
84904;BME280;75168;52.096;5.214;2024-01-27T00:52:25;103357.44;;;20.86;40.64
84904;BME280;75168;52.096;5.214;2024-01-27T00:54:50;103358.28;;;20.85;40.75
84904;BME280;75168;52.096;5.214;2024-01-27T00:57:16;103353.88;;;20.85;41.09
84904;BME280;75168;52.096;5.214;2024-01-27T00:59:41;103355.63;;;20.85;40.79
84904;BME280;75168;52.096;5.214;2024-01-27T01:02:07;103363.59;;;20.85;40.95
84904;BME280;75168;52.096;5.214;2024-01-27T01:04:32;103359.19;;;20.85;40.62
84904;BME280;75168;52.096;5.214;2024-01-27T01:06:58;103362.72;;;20.84;40.95
84904;BME280;75168;52.096;5.214;2024-01-27T01:09:23;103364.47;;;20.85;40.92
84904;BME280;75168;52.096;5.214;2024-01-27T01:11:48;103361.84;;;20.84;40.81
84904;BME280;75168;52.096;5.214;2024-01-27T01:14:14;103356.53;;;20.84;40.91
84904;BME280;75168;52.096;5.214;2024-01-27T01:16:40;103361.84;;;20.84;40.68
84904;BME280;75168;52.096;5.214;2024-01-27T01:19:05;103368.91;;;20.85;40.85
84904;BME280;75168;52.096;5.214;2024-01-27T01:21:30;103355.63;;;20.83;40.65
84904;BME280;75168;52.096;5.214;2024-01-27T01:23:56;103356.53;;;20.84;40.96
84904;BME280;75168;52.096;5.214;2024-01-27T01:26:21;103360.94;;;20.83;40.97
84904;BME280;75168;52.096;5.214;2024-01-27T01:28:47;103360.94;;;20.83;40.80
84904;BME280;75168;52.096;5.214;2024-01-27T01:31:12;103358.28;;;20.83;40.68
84904;BME280;75168;52.096;5.214;2024-01-27T01:33:37;103365.34;;;20.83;41.00
84904;BME280;75168;52.096;5.214;2024-01-27T01:36:03;103352.94;;;20.82;40.76
84904;BME280;75168;52.096;5.214;2024-01-27T01:38:28;103353.88;;;20.82;40.80
84904;BME280;75168;52.096;5.214;2024-01-27T01:40:54;103363.56;;;20.82;40.79
84904;BME280;75168;52.096;5.214;2024-01-27T01:43:19;103357.38;;;20.81;40.87
84904;BME280;75168;52.096;5.214;2024-01-27T01:45:44;103361.81;;;20.81;41.01
84904;BME280;75168;52.096;5.214;2024-01-27T01:48:10;103368.88;;;20.82;41.09
84904;BME280;75168;52.096;5.214;2024-01-27T01:50:35;103372.41;;;20.81;40.67
84904;BME280;75168;52.096;5.214;2024-01-27T01:53:01;103368.88;;;20.80;40.78
84904;BME280;75168;52.096;5.214;2024-01-27T01:55:27;103374.16;;;20.82;40.68
84904;BME280;75168;52.096;5.214;2024-01-27T01:57:52;103378.59;;;20.81;40.80
84904;BME280;75168;52.096;5.214;2024-01-27T02:00:19;103370.63;;;20.81;40.73
84904;BME280;75168;52.096;5.214;2024-01-27T02:02:45;103367.97;;;20.80;40.61
84904;BME280;75168;52.096;5.214;2024-01-27T02:05:13;103377.72;;;20.81;40.82
84904;BME280;75168;52.096;5.214;2024-01-27T02:07:39;103367.09;;;20.81;40.71
84904;BME280;75168;52.096;5.214;2024-01-27T02:10:13;103369.75;;;20.81;40.91
84904;BME280;75168;52.096;5.214;2024-01-27T02:12:40;103377.66;;;20.73;40.92
84904;BME280;75168;52.096;5.214;2024-01-27T02:15:10;103368.81;;;20.74;40.85
84904;BME280;75168;52.096;5.214;2024-01-27T02:17:36;103374.13;;;20.76;40.63
84904;BME280;75168;52.096;5.214;2024-01-27T02:20:01;103356.44;;;20.76;40.72
84904;BME280;75168;52.096;5.214;2024-01-27T02:22:27;103358.22;;;20.77;40.90
84904;BME280;75168;52.096;5.214;2024-01-27T02:24:52;103371.50;;;20.77;40.60
84904;BME280;75168;52.096;5.214;2024-01-27T02:27:17;103374.16;;;20.77;40.75
84904;BME280;75168;52.096;5.214;2024-01-27T02:29:43;103371.50;;;20.77;40.82
84904;BME280;75168;52.096;5.214;2024-01-27T02:32:09;103360.88;;;20.77;40.93
84904;BME280;75168;52.096;5.214;2024-01-27T02:34:34;103378.56;;;20.78;40.67
84904;BME280;75168;52.096;5.214;2024-01-27T02:36:59;103371.50;;;20.77;40.59
84904;BME280;75168;52.096;5.214;2024-01-27T02:39:25;103360.00;;;20.77;40.98
84904;BME280;75168;52.096;5.214;2024-01-27T02:41:50;103368.84;;;20.77;40.78
84904;BME280;75168;52.096;5.214;2024-01-27T02:44:16;103371.50;;;20.77;40.63
84904;BME280;75168;52.096;5.214;2024-01-27T02:46:41;103375.00;;;20.76;41.04
84904;BME280;75168;52.096;5.214;2024-01-27T02:49:09;103381.22;;;20.77;40.78
84904;BME280;75168;52.096;5.214;2024-01-27T02:51:34;103375.91;;;20.77;40.84
84904;BME280;75168;52.096;5.214;2024-01-27T02:53:59;103388.28;;;20.76;40.80
84904;BME280;75168;52.096;5.214;2024-01-27T02:56:25;103382.97;;;20.76;40.77
84904;BME280;75168;52.096;5.214;2024-01-27T02:58:50;103381.22;;;20.77;40.63
84904;BME280;75168;52.096;5.214;2024-01-27T03:01:15;103390.91;;;20.76;40.93
84904;BME280;75168;52.096;5.214;2024-01-27T03:03:41;103392.72;;;20.77;40.56
84904;BME280;75168;52.096;5.214;2024-01-27T03:06:06;103373.28;;;20.77;40.79
84904;BME280;75168;52.096;5.214;2024-01-27T03:08:31;103378.56;;;20.77;40.71
84904;BME280;75168;52.096;5.214;2024-01-27T03:10:57;103373.28;;;20.77;40.49
84904;BME280;75168;52.096;5.214;2024-01-27T03:13:22;103376.81;;;20.77;40.60
84904;BME280;75168;52.096;5.214;2024-01-27T03:15:48;103365.31;;;20.77;40.60
84904;BME280;75168;52.096;5.214;2024-01-27T03:18:14;103367.94;;;20.75;40.43
84904;BME280;75168;52.096;5.214;2024-01-27T03:20:39;103369.69;;;20.76;40.70
84904;BME280;75168;52.096;5.214;2024-01-27T03:23:05;103359.97;;;20.75;40.56
84904;BME280;75168;52.096;5.214;2024-01-27T03:25:30;103354.69;;;20.75;40.91
84904;BME280;75168;52.096;5.214;2024-01-27T03:27:55;103360.84;;;20.74;40.91
84904;BME280;75168;52.096;5.214;2024-01-27T03:30:21;103361.72;;;20.75;40.81
84904;BME280;75168;52.096;5.214;2024-01-27T03:32:46;103360.84;;;20.74;40.75
84904;BME280;75168;52.096;5.214;2024-01-27T03:35:11;103373.25;;;20.75;40.59
84904;BME280;75168;52.096;5.214;2024-01-27T03:37:37;103384.72;;;20.74;40.86
84904;BME280;75168;52.096;5.214;2024-01-27T03:40:02;103375.88;;;20.73;40.77
84904;BME280;75168;52.096;5.214;2024-01-27T03:42:28;103374.09;;;20.74;40.75
84904;BME280;75168;52.096;5.214;2024-01-27T03:44:53;103382.97;;;20.73;40.77
84904;BME280;75168;52.096;5.214;2024-01-27T03:47:19;103377.66;;;20.73;40.88
84904;BME280;75168;52.096;5.214;2024-01-27T03:49:45;103384.69;;;20.72;40.61
84904;BME280;75168;52.096;5.214;2024-01-27T03:52:11;103386.47;;;20.72;40.76
84904;BME280;75168;52.096;5.214;2024-01-27T03:54:37;103382.97;;;20.73;40.47
84904;BME280;75168;52.096;5.214;2024-01-27T03:57:04;103390.00;;;20.72;40.79
84904;BME280;75168;52.096;5.214;2024-01-27T03:59:29;103388.25;;;20.71;40.58
84904;BME280;75168;52.096;5.214;2024-01-27T04:01:54;103391.78;;;20.72;40.73
84904;BME280;75168;52.096;5.214;2024-01-27T04:04:20;103397.06;;;20.72;40.72
84904;BME280;75168;52.096;5.214;2024-01-27T04:06:46;103399.72;;;20.72;40.56
84904;BME280;75168;52.096;5.214;2024-01-27T04:09:11;103397.94;;;20.71;40.48
84904;BME280;75168;52.096;5.214;2024-01-27T04:11:37;103389.97;;;20.71;40.82
84904;BME280;75168;52.096;5.214;2024-01-27T04:14:04;103397.06;;;20.72;40.55
84904;BME280;75168;52.096;5.214;2024-01-27T04:16:29;103397.94;;;20.71;40.49
84904;BME280;75168;52.096;5.214;2024-01-27T04:18:56;103396.19;;;20.71;40.56
84904;BME280;75168;52.096;5.214;2024-01-27T04:21:21;103397.94;;;20.71;40.65
84904;BME280;75168;52.096;5.214;2024-01-27T04:23:47;103405.00;;;20.70;40.40
84904;BME280;75168;52.096;5.214;2024-01-27T04:26:12;103401.47;;;20.70;40.59
84904;BME280;75168;52.096;5.214;2024-01-27T04:28:38;103408.53;;;20.69;40.73
84904;BME280;75168;52.096;5.214;2024-01-27T04:31:03;103401.47;;;20.70;40.49
84904;BME280;75168;52.096;5.214;2024-01-27T04:33:29;103405.00;;;20.70;40.75
84904;BME280;75168;52.096;5.214;2024-01-27T04:35:54;103398.81;;;20.70;40.52
84904;BME280;75168;52.096;5.214;2024-01-27T04:38:20;103397.91;;;20.69;40.75
84904;BME280;75168;52.096;5.214;2024-01-27T04:40:45;103403.22;;;20.69;40.77
84904;BME280;75168;52.096;5.214;2024-01-27T04:43:15;103399.69;;;20.69;40.33
84904;BME280;75168;52.096;5.214;2024-01-27T04:45:41;103403.22;;;20.69;40.53
84904;BME280;75168;52.096;5.214;2024-01-27T04:48:06;103403.22;;;20.68;40.55
84904;BME280;75168;52.096;5.214;2024-01-27T04:50:32;103407.63;;;20.69;40.70
84904;BME280;75168;52.096;5.214;2024-01-27T04:52:57;103405.88;;;20.68;40.58
84904;BME280;75168;52.096;5.214;2024-01-27T04:55:22;103397.00;;;20.67;40.88
84904;BME280;75168;52.096;5.214;2024-01-27T04:57:48;103399.66;;;20.67;40.23
84904;BME280;75168;52.096;5.214;2024-01-27T05:00:13;103409.41;;;20.68;40.48
84904;BME280;75168;52.096;5.214;2024-01-27T05:02:43;103397.94;;;20.68;40.90
84904;BME280;75168;52.096;5.214;2024-01-27T05:05:08;103414.72;;;20.68;40.62
84904;BME280;75168;52.096;5.214;2024-01-27T05:07:34;103408.50;;;20.66;40.75
84904;BME280;75168;52.096;5.214;2024-01-27T05:10:00;103403.22;;;20.66;40.31
84904;BME280;75168;52.096;5.214;2024-01-27T05:12:25;103406.75;;;20.67;40.56
84904;BME280;75168;52.096;5.214;2024-01-27T05:14:51;103404.94;;;20.66;40.61
84904;BME280;75168;52.096;5.214;2024-01-27T05:17:16;103405.84;;;20.66;40.38
84904;BME280;75168;52.096;5.214;2024-01-27T05:19:42;103398.75;;;20.65;40.57
84904;BME280;75168;52.096;5.214;2024-01-27T05:22:07;103399.63;;;20.66;40.34
84904;BME280;75168;52.096;5.214;2024-01-27T05:24:32;103391.69;;;20.66;40.62
84904;BME280;75168;52.096;5.214;2024-01-27T05:26:59;103388.19;;;20.67;40.34
84904;BME280;75168;52.096;5.214;2024-01-27T05:29:25;103389.94;;;20.66;40.27
84904;BME280;75168;52.096;5.214;2024-01-27T05:31:51;103391.69;;;20.66;40.45
84904;BME280;75168;52.096;5.214;2024-01-27T05:34:16;103384.63;;;20.65;40.61
84904;BME280;75168;52.096;5.214;2024-01-27T05:36:41;103384.63;;;20.65;40.72
84904;BME280;75168;52.096;5.214;2024-01-27T05:39:07;103387.28;;;20.65;40.29
84904;BME280;75168;52.096;5.214;2024-01-27T05:41:33;103383.75;;;20.64;40.50
84904;BME280;75168;52.096;5.214;2024-01-27T05:43:59;103378.44;;;20.64;40.68
84904;BME280;75168;52.096;5.214;2024-01-27T05:46:25;103382.84;;;20.64;40.65
84904;BME280;75168;52.096;5.214;2024-01-27T05:48:50;103380.19;;;20.65;40.33
84904;BME280;75168;52.096;5.214;2024-01-27T05:51:18;103384.59;;;20.63;40.66
84904;BME280;75168;52.096;5.214;2024-01-27T05:53:44;103375.75;;;20.63;40.33
84904;BME280;75168;52.096;5.214;2024-01-27T05:56:09;103382.81;;;20.62;40.43
84904;BME280;75168;52.096;5.214;2024-01-27T05:58:34;103388.13;;;20.64;40.26
84904;BME280;75168;52.096;5.214;2024-01-27T06:01:00;103383.72;;;20.63;40.63
84904;BME280;75168;52.096;5.214;2024-01-27T06:03:25;103388.13;;;20.62;40.59
84904;BME280;75168;52.096;5.214;2024-01-27T06:05:51;103386.38;;;20.63;40.62
84904;BME280;75168;52.096;5.214;2024-01-27T06:08:16;103389.91;;;20.63;40.27
84904;BME280;75168;52.096;5.214;2024-01-27T06:10:43;103389.03;;;20.63;40.22
84904;BME280;75168;52.096;5.214;2024-01-27T06:13:08;103389.00;;;20.61;40.25
84904;BME280;75168;52.096;5.214;2024-01-27T06:15:34;103389.88;;;20.62;40.54
84904;BME280;75168;52.096;5.214;2024-01-27T06:17:59;103392.53;;;20.62;40.50
84904;BME280;75168;52.096;5.214;2024-01-27T06:20:24;103392.53;;;20.62;40.32
84904;BME280;75168;52.096;5.214;2024-01-27T06:22:50;103386.28;;;20.60;40.25
84904;BME280;75168;52.096;5.214;2024-01-27T06:25:17;103386.34;;;20.61;40.42
84904;BME280;75168;52.096;5.214;2024-01-27T06:27:42;103392.47;;;20.60;40.33
84904;BME280;75168;52.096;5.214;2024-01-27T06:30:08;103391.59;;;20.60;40.57
84904;BME280;75168;52.096;5.214;2024-01-27T06:32:35;103396.91;;;20.60;40.42
84904;BME280;75168;52.096;5.214;2024-01-27T06:35:00;103407.50;;;20.60;40.34
84904;BME280;75168;52.096;5.214;2024-01-27T06:37:25;103400.44;;;20.60;40.61
84904;BME280;75168;52.096;5.214;2024-01-27T06:39:51;103390.72;;;20.59;40.59
84904;BME280;75168;52.096;5.214;2024-01-27T06:42:16;103398.69;;;20.59;40.38
84904;BME280;75168;52.096;5.214;2024-01-27T06:44:41;103387.16;;;20.59;40.43
84904;BME280;75168;52.096;5.214;2024-01-27T06:47:07;103388.94;;;20.58;40.18
84904;BME280;75168;52.096;5.214;2024-01-27T06:49:32;103393.38;;;20.59;40.52
84904;BME280;75168;52.096;5.214;2024-01-27T06:51:58;103383.63;;;20.58;40.28
84904;BME280;75168;52.096;5.214;2024-01-27T06:54:24;103398.66;;;20.58;40.56
84904;BME280;75168;52.096;5.214;2024-01-27T06:56:49;103396.00;;;20.58;40.58
84904;BME280;75168;52.096;5.214;2024-01-27T06:59:14;103387.16;;;20.57;40.38
84904;BME280;75168;52.096;5.214;2024-01-27T07:01:48;103396.00;;;20.58;40.16
84904;BME280;75168;52.096;5.214;2024-01-27T07:04:16;103400.41;;;20.57;40.32
84904;BME280;75168;52.096;5.214;2024-01-27T07:06:42;103410.13;;;20.57;40.40
84904;BME280;75168;52.096;5.214;2024-01-27T07:09:08;103406.59;;;20.56;40.30
84904;BME280;75168;52.096;5.214;2024-01-27T07:11:35;103416.34;;;20.57;40.08
84904;BME280;75168;52.096;5.214;2024-01-27T07:14:02;103427.81;;;20.58;40.56
84904;BME280;75168;52.096;5.214;2024-01-27T07:16:27;103426.03;;;20.57;40.30
84904;BME280;75168;52.096;5.214;2024-01-27T07:18:53;103426.91;;;20.56;40.54
84904;BME280;75168;52.096;5.214;2024-01-27T07:21:18;103433.97;;;20.57;40.15
84904;BME280;75168;52.096;5.214;2024-01-27T07:23:44;103433.09;;;20.56;40.14
84904;BME280;75168;52.096;5.214;2024-01-27T07:26:10;103442.84;;;20.57;40.50
84904;BME280;75168;52.096;5.214;2024-01-27T07:28:36;103446.34;;;20.56;40.25
84904;BME280;75168;52.096;5.214;2024-01-27T07:31:02;103446.34;;;20.56;40.13
84904;BME280;75168;52.096;5.214;2024-01-27T07:33:27;103452.53;;;20.55;40.47
84904;BME280;75168;52.096;5.214;2024-01-27T07:35:52;103459.63;;;20.56;40.21
84904;BME280;75168;52.096;5.214;2024-01-27T07:38:18;103456.09;;;20.56;40.29
84904;BME280;75168;52.096;5.214;2024-01-27T07:40:43;103449.88;;;20.55;40.21
84904;BME280;75168;52.096;5.214;2024-01-27T07:43:08;103446.34;;;20.54;40.55
84904;BME280;75168;52.096;5.214;2024-01-27T07:45:34;103446.34;;;20.54;40.46
84904;BME280;75168;52.096;5.214;2024-01-27T07:47:59;103460.47;;;20.55;40.35
84904;BME280;75168;52.096;5.214;2024-01-27T07:50:24;103462.25;;;20.56;40.12
84904;BME280;75168;52.096;5.214;2024-01-27T07:52:50;103471.06;;;20.55;40.23
84904;BME280;75168;52.096;5.214;2024-01-27T07:55:15;103477.28;;;20.56;40.16
84904;BME280;75168;52.096;5.214;2024-01-27T07:57:42;103473.72;;;20.55;40.02
84904;BME280;75168;52.096;5.214;2024-01-27T08:00:08;103469.34;;;20.56;40.49
84904;BME280;75168;52.096;5.214;2024-01-27T08:02:33;103463.13;;;20.55;40.22
84904;BME280;75168;52.096;5.214;2024-01-27T08:04:59;103466.69;;;20.56;40.44
84904;BME280;75168;52.096;5.214;2024-01-27T08:07:24;103473.72;;;20.55;40.54
84904;BME280;75168;52.096;5.214;2024-01-27T08:09:50;103466.66;;;20.54;40.09
84904;BME280;75168;52.096;5.214;2024-01-27T08:12:15;103464.00;;;20.54;40.24
84904;BME280;75168;52.096;5.214;2024-01-27T08:14:40;103477.28;;;20.56;40.08
84904;BME280;75168;52.096;5.214;2024-01-27T08:17:06;103466.66;;;20.54;40.47
84904;BME280;75168;52.096;5.214;2024-01-27T08:19:31;103472.00;;;20.56;40.33
84904;BME280;75168;52.096;5.214;2024-01-27T08:21:57;103473.72;;;20.55;40.60
84904;BME280;75168;52.096;5.214;2024-01-27T08:24:22;103466.69;;;20.56;40.34
84904;BME280;75168;52.096;5.214;2024-01-27T08:26:49;103478.19;;;20.56;40.06
84904;BME280;75168;52.096;5.214;2024-01-27T08:29:15;103467.56;;;20.56;40.02
84904;BME280;75168;52.096;5.214;2024-01-27T08:31:40;103464.03;;;20.56;40.08
84904;BME280;75168;52.096;5.214;2024-01-27T08:34:06;103471.06;;;20.55;40.17
84904;BME280;75168;52.096;5.214;2024-01-27T08:36:32;103474.63;;;20.56;40.28
84904;BME280;75168;52.096;5.214;2024-01-27T08:38:59;103472.00;;;20.56;40.17
84904;BME280;75168;52.096;5.214;2024-01-27T08:41:24;103473.75;;;20.57;40.08
84904;BME280;75168;52.096;5.214;2024-01-27T08:43:50;103469.38;;;20.57;40.25
84904;BME280;75168;52.096;5.214;2024-01-27T08:46:15;103478.19;;;20.56;40.39
84904;BME280;75168;52.096;5.214;2024-01-27T08:48:43;103467.56;;;20.56;40.26
84904;BME280;75168;52.096;5.214;2024-01-27T08:51:11;103460.50;;;20.57;39.92
84904;BME280;75168;52.096;5.214;2024-01-27T08:53:38;103455.19;;;20.57;40.00
84904;BME280;75168;52.096;5.214;2024-01-27T08:56:03;103459.63;;;20.56;40.00
84904;BME280;75168;52.096;5.214;2024-01-27T08:58:30;103469.38;;;20.57;39.93
84904;BME280;75168;52.096;5.214;2024-01-27T09:00:55;103461.41;;;20.57;40.20
84904;BME280;75168;52.096;5.214;2024-01-27T09:03:20;103458.75;;;20.57;40.33
84904;BME280;75168;52.096;5.214;2024-01-27T09:05:47;103456.09;;;20.57;40.23
84904;BME280;75168;52.096;5.214;2024-01-27T09:08:12;103464.94;;;20.58;39.93
84904;BME280;75168;52.096;5.214;2024-01-27T09:10:38;103468.47;;;20.58;40.41
84904;BME280;75168;52.096;5.214;2024-01-27T09:13:04;103481.72;;;20.58;39.98
84904;BME280;75168;52.096;5.214;2024-01-27T09:15:30;103483.50;;;20.58;40.06
84904;BME280;75168;52.096;5.214;2024-01-27T09:17:55;103496.78;;;20.59;40.06
84904;BME280;75168;52.096;5.214;2024-01-27T09:20:21;103492.34;;;20.58;40.03
84904;BME280;75168;52.096;5.214;2024-01-27T09:22:46;103490.56;;;20.59;40.33
84904;BME280;75168;52.096;5.214;2024-01-27T09:25:13;103493.22;;;20.59;40.07
84904;BME280;75168;52.096;5.214;2024-01-27T09:27:39;103493.22;;;20.59;40.18
84904;BME280;75168;52.096;5.214;2024-01-27T09:30:05;103497.66;;;20.60;40.34
84904;BME280;75168;52.096;5.214;2024-01-27T09:32:30;103488.81;;;20.59;39.92
84904;BME280;75168;52.096;5.214;2024-01-27T09:34:56;103497.72;;;20.61;39.93
84904;BME280;75168;52.096;5.214;2024-01-27T09:37:21;103499.47;;;20.61;39.90
84904;BME280;75168;52.096;5.214;2024-01-27T09:39:46;103499.47;;;20.62;40.33
84904;BME280;75168;52.096;5.214;2024-01-27T09:42:13;103495.09;;;20.63;40.05
84904;BME280;75168;52.096;5.214;2024-01-27T09:44:43;103499.50;;;20.64;40.02
84904;BME280;75168;52.096;5.214;2024-01-27T09:47:10;103511.88;;;20.63;39.88
84904;BME280;75168;52.096;5.214;2024-01-27T09:49:38;103513.69;;;20.64;40.02
84904;BME280;75168;52.096;5.214;2024-01-27T09:52:04;103514.56;;;20.65;40.08
84904;BME280;75168;52.096;5.214;2024-01-27T09:54:30;103517.22;;;20.65;40.02
84904;BME280;75168;52.096;5.214;2024-01-27T09:56:55;103522.53;;;20.65;40.04
84904;BME280;75168;52.096;5.214;2024-01-27T09:59:21;103527.84;;;20.66;40.25
84904;BME280;75168;52.096;5.214;2024-01-27T10:01:48;103525.19;;;20.66;39.94
84904;BME280;75168;52.096;5.214;2024-01-27T10:04:14;103526.06;;;20.67;39.92
84904;BME280;75168;52.096;5.214;2024-01-27T10:06:40;103526.97;;;20.67;39.78
84904;BME280;75168;52.096;5.214;2024-01-27T10:09:06;103532.28;;;20.69;40.26
84904;BME280;75168;52.096;5.214;2024-01-27T10:11:36;103531.41;;;20.68;39.97
84904;BME280;75168;52.096;5.214;2024-01-27T10:14:01;103529.63;;;20.69;40.31
84904;BME280;75168;52.096;5.214;2024-01-27T10:16:28;103530.50;;;20.69;40.19
84904;BME280;75168;52.096;5.214;2024-01-27T10:19:03;103535.81;;;20.69;40.08
84904;BME280;75168;52.096;5.214;2024-01-27T10:21:28;103536.72;;;20.70;40.23
84904;BME280;75168;52.096;5.214;2024-01-27T10:23:54;103527.88;;;20.69;39.94
84904;BME280;75168;52.096;5.214;2024-01-27T10:26:19;103530.53;;;20.71;39.94
84904;BME280;75168;52.096;5.214;2024-01-27T10:28:55;103540.25;;;20.70;39.74
84904;BME280;75168;52.096;5.214;2024-01-27T10:31:26;103538.50;;;20.71;40.13
84904;BME280;75168;52.096;5.214;2024-01-27T10:33:52;103537.63;;;20.72;39.75
84904;BME280;75168;52.096;5.214;2024-01-27T10:36:19;103534.09;;;20.71;39.88
84904;BME280;75168;52.096;5.214;2024-01-27T10:38:44;103538.53;;;20.72;39.91
84904;BME280;75168;52.096;5.214;2024-01-27T10:41:10;103540.31;;;20.73;40.11
84904;BME280;75168;52.096;5.214;2024-01-27T10:43:39;103539.44;;;20.73;39.63
84904;BME280;75168;52.096;5.214;2024-01-27T10:46:06;103540.31;;;20.73;40.06
84904;BME280;75168;52.096;5.214;2024-01-27T10:48:35;103540.34;;;20.75;39.80
84904;BME280;75168;52.096;5.214;2024-01-27T10:51:07;103532.34;;;20.73;39.87
84904;BME280;75168;52.096;5.214;2024-01-27T10:53:33;103535.03;;;20.75;40.00
84904;BME280;75168;52.096;5.214;2024-01-27T10:56:00;103531.47;;;20.73;39.79
84904;BME280;75168;52.096;5.214;2024-01-27T10:58:30;103536.78;;;20.75;39.97
84904;BME280;75168;52.096;5.214;2024-01-27T11:00:56;103527.06;;;20.73;39.83
84904;BME280;75168;52.096;5.214;2024-01-27T11:03:22;103526.16;;;20.75;39.96
84904;BME280;75168;52.096;5.214;2024-01-27T11:05:50;103517.34;;;20.76;40.11
84904;BME280;75168;52.096;5.214;2024-01-27T11:08:18;103512.03;;;20.74;40.08
84904;BME280;75168;52.096;5.214;2024-01-27T11:10:43;103508.50;;;20.73;39.77
84904;BME280;75168;52.096;5.214;2024-01-27T11:13:10;103508.50;;;20.73;40.06
84904;BME280;75168;52.096;5.214;2024-01-27T11:15:36;103512.91;;;20.73;40.01
84904;BME280;75168;52.096;5.214;2024-01-27T11:18:01;103508.47;;;20.72;40.07
84904;BME280;75168;52.096;5.214;2024-01-27T11:20:32;103506.69;;;20.72;39.93
84904;BME280;75168;52.096;5.214;2024-01-27T11:23:09;103502.31;;;20.73;39.81
84904;BME280;75168;52.096;5.214;2024-01-27T11:25:35;103495.19;;;20.72;39.99
84904;BME280;75168;52.096;5.214;2024-01-27T11:28:10;103495.19;;;20.72;40.07
84904;BME280;75168;52.096;5.214;2024-01-27T11:30:38;103497.84;;;20.70;39.83
84904;BME280;75168;52.096;5.214;2024-01-27T11:33:05;103494.31;;;20.71;40.00
84904;BME280;75168;52.096;5.214;2024-01-27T11:35:31;103489.03;;;20.71;40.09
84904;BME280;75168;52.096;5.214;2024-01-27T11:37:56;103501.38;;;20.71;39.75
84904;BME280;75168;52.096;5.214;2024-01-27T11:40:22;103492.53;;;20.70;39.93
84904;BME280;75168;52.096;5.214;2024-01-27T11:42:57;103489.88;;;20.70;39.89
84904;BME280;75168;52.096;5.214;2024-01-27T11:45:23;103489.88;;;20.70;39.94
84904;BME280;75168;52.096;5.214;2024-01-27T11:47:49;103492.53;;;20.70;39.72
84904;BME280;75168;52.096;5.214;2024-01-27T11:50:17;103496.97;;;20.71;39.75
84904;BME280;75168;52.096;5.214;2024-01-27T11:52:42;103489.88;;;20.70;39.95
84904;BME280;75168;52.096;5.214;2024-01-27T11:55:08;103493.41;;;20.71;39.80
84904;BME280;75168;52.096;5.214;2024-01-27T11:57:33;103496.97;;;20.71;39.89
84904;BME280;75168;52.096;5.214;2024-01-27T11:59:59;103490.78;;;20.72;39.99
84904;BME280;75168;52.096;5.214;2024-01-27T12:02:24;103498.75;;;20.72;39.80
84904;BME280;75168;52.096;5.214;2024-01-27T12:04:49;103486.38;;;20.73;40.06
84904;BME280;75168;52.096;5.214;2024-01-27T12:07:15;103479.31;;;20.73;39.88
84904;BME280;75168;52.096;5.214;2024-01-27T12:09:44;103481.97;;;20.73;39.80
84904;BME280;75168;52.096;5.214;2024-01-27T12:12:09;103494.34;;;20.76;39.70
84904;BME280;75168;52.096;5.214;2024-01-27T12:14:50;103477.56;;;20.76;39.78
84904;BME280;75168;52.096;5.214;2024-01-27T12:17:16;103486.41;;;20.76;39.79
84904;BME280;75168;52.096;5.214;2024-01-27T12:19:50;103486.41;;;20.76;39.99
84904;BME280;75168;52.096;5.214;2024-01-27T12:22:22;103483.78;;;20.78;40.06
84904;BME280;75168;52.096;5.214;2024-01-27T12:24:48;103492.59;;;20.78;39.82
84904;BME280;75168;52.096;5.214;2024-01-27T12:27:13;103485.56;;;20.79;39.97
84904;BME280;75168;52.096;5.214;2024-01-27T12:29:42;103486.44;;;20.79;39.90
84904;BME280;75168;52.096;5.214;2024-01-27T12:32:07;103488.25;;;20.80;39.97
84904;BME280;75168;52.096;5.214;2024-01-27T12:34:32;103486.47;;;20.81;40.07
84904;BME280;75168;52.096;5.214;2024-01-27T12:36:58;103485.59;;;20.80;39.65
84904;BME280;75168;52.096;5.214;2024-01-27T12:39:23;103483.81;;;20.81;40.02
84904;BME280;75168;52.096;5.214;2024-01-27T12:41:48;103486.50;;;20.82;39.81
84904;BME280;75168;52.096;5.214;2024-01-27T12:44:14;103478.53;;;20.82;39.76